createdAt,value
2022-10-18T00:02:14.393Z,47.50
2022-10-18T00:05:16.541Z,43.25
2022-10-18T00:08:19.701Z,42.25
2022-10-18T00:11:21.674Z,37.75
2022-10-18T00:14:23.962Z,38.00
2022-10-18T00:17:26.001Z,39.75
2022-10-18T00:20:28.497Z,45.00
2022-10-18T00:23:31.768Z,40.50
2022-10-18T00:26:34.087Z,39.25
2022-10-18T00:29:36.060Z,47.50
2022-10-18T00:32:40.159Z,45.25
2022-10-18T00:35:42.490Z,44.50
2022-10-18T00:38:45.734Z,48.00
2022-10-18T00:41:48.713Z,45.75
2022-10-18T00:44:50.887Z,43.50
2022-10-18T00:48:00.791Z,35.50
2022-10-18T00:51:03.174Z,47.00
2022-10-18T00:54:05.184Z,41.25
2022-10-18T00:57:07.850Z,40.75
2022-10-18T01:00:10.499Z,39.50
2022-10-18T01:03:12.758Z,40.00
2022-10-18T01:06:14.743Z,37.25
2022-10-18T01:09:42.040Z,34.75
2022-10-18T01:12:47.920Z,36.00
2022-10-18T01:16:12.713Z,36.75
2022-10-18T01:19:33.086Z,41.25
2022-10-18T01:22:39.733Z,37.50
2022-10-18T01:25:57.616Z,35.25
2022-10-18T01:29:18.601Z,37.50
2022-10-18T01:32:24.037Z,35.50
2022-10-18T01:35:43.147Z,33.25
2022-10-18T01:38:47.683Z,35.00
2022-10-18T01:41:51.377Z,22.75
2022-10-18T01:44:54.288Z,37.75
2022-10-18T01:47:57.264Z,33.00
2022-10-18T01:50:59.414Z,32.75
2022-10-18T01:54:02.066Z,30.00
2022-10-18T01:57:26.449Z,34.50
2022-10-18T02:00:47.962Z,31.25
2022-10-18T02:03:51.349Z,29.50
2022-10-18T02:07:01.019Z,29.25
2022-10-18T02:10:16.075Z,35.00
2022-10-18T02:13:21.358Z,26.00
2022-10-18T02:16:27.114Z,31.25
2022-10-18T02:19:35.147Z,32.50
2022-10-18T02:22:38.174Z,29.25
2022-10-18T02:25:40.461Z,28.75
2022-10-18T02:28:42.814Z,33.25
2022-10-18T02:31:50.179Z,30.50
2022-10-18T02:34:59.288Z,26.75
2022-10-18T02:38:03.047Z,28.50
2022-10-18T02:41:05.193Z,26.00
2022-10-18T02:44:07.434Z,32.25
2022-10-18T02:47:10.654Z,30.25
2022-10-18T02:50:13.346Z,25.50
2022-10-18T02:53:15.381Z,27.25
2022-10-18T02:56:17.536Z,28.00
2022-10-18T02:59:19.736Z,30.00
2022-10-18T03:02:22.278Z,29.00
2022-10-18T03:05:24.388Z,28.75
2022-10-18T03:08:26.856Z,29.00
2022-10-18T03:11:28.860Z,31.00
2022-10-18T03:14:31.092Z,28.50
2022-10-18T03:17:33.439Z,31.25
2022-10-18T03:20:35.948Z,25.25
2022-10-18T03:23:37.988Z,24.75
2022-10-18T03:26:40.342Z,35.00
2022-10-18T03:29:42.314Z,29.00
2022-10-18T03:32:44.543Z,28.25
2022-10-18T03:35:46.614Z,28.00
2022-10-18T03:38:48.906Z,28.25
2022-10-18T03:41:51.099Z,24.25
2022-10-18T03:44:53.452Z,24.00
2022-10-18T03:47:55.434Z,30.75
2022-10-18T03:50:57.805Z,30.75
2022-10-18T03:53:59.848Z,25.50
2022-10-18T03:57:02.045Z,30.75
2022-10-18T04:00:04.848Z,29.25
2022-10-18T04:03:14.027Z,24.75
2022-10-18T04:06:16.166Z,24.75
2022-10-18T04:09:18.713Z,28.25
2022-10-18T04:12:20.855Z,26.00
2022-10-18T04:15:23.465Z,28.50
2022-10-18T04:18:25.442Z,29.50
2022-10-18T04:21:28.124Z,23.50
2022-10-18T04:24:30.441Z,27.00
2022-10-18T04:27:33.010Z,28.50
2022-10-18T04:30:35.519Z,23.00
2022-10-18T04:33:38.253Z,32.50
2022-10-18T04:36:41.024Z,30.50
2022-10-18T04:39:49.847Z,23.25
2022-10-18T04:42:54.766Z,27.25
2022-10-18T04:45:57.164Z,31.00
2022-10-18T04:49:01.196Z,23.00
2022-10-18T04:52:04.259Z,32.50
2022-10-18T04:55:06.744Z,27.00
2022-10-18T04:58:08.969Z,27.75
2022-10-18T05:01:11.368Z,27.25
2022-10-18T05:04:13.812Z,28.25
2022-10-18T05:07:15.897Z,24.00
2022-10-18T05:10:18.198Z,26.25
2022-10-18T05:13:20.218Z,23.75
2022-10-18T05:16:22.682Z,25.50
2022-10-18T05:19:24.719Z,26.25
2022-10-18T05:22:27.092Z,28.25
2022-10-18T05:25:30.251Z,30.00
2022-10-18T05:28:39.735Z,24.50
2022-10-18T05:31:42.706Z,29.25
2022-10-18T05:34:44.988Z,26.00
2022-10-18T05:37:47.150Z,21.50
2022-10-18T05:40:49.610Z,25.50
2022-10-18T05:43:52.053Z,26.00
2022-10-18T05:46:54.375Z,23.75
2022-10-18T05:49:56.492Z,26.25
2022-10-18T05:53:06.957Z,25.75
2022-10-18T05:56:15.021Z,23.75
2022-10-18T05:59:17.211Z,22.50
2022-10-18T06:02:19.535Z,26.25
2022-10-18T06:05:21.937Z,32.00
2022-10-18T06:08:23.961Z,28.75
2022-10-18T06:11:26.485Z,32.75
2022-10-18T06:14:28.614Z,22.50
2022-10-18T06:17:32.589Z,29.25
2022-10-18T06:20:34.937Z,29.75
2022-10-18T06:23:37.654Z,31.00
2022-10-18T06:26:39.745Z,31.00
2022-10-18T06:29:42.017Z,27.00
2022-10-18T06:32:44.030Z,28.25
2022-10-18T06:36:00.612Z,28.00
2022-10-18T06:39:02.689Z,31.50
2022-10-18T06:42:04.981Z,31.75
2022-10-18T06:45:10.237Z,33.75
2022-10-18T06:48:12.710Z,22.25
2022-10-18T06:51:15.527Z,28.00
2022-10-18T06:54:18.935Z,27.75
2022-10-18T06:57:21.849Z,34.75
2022-10-18T07:00:24.116Z,28.00
2022-10-18T07:03:26.350Z,31.25
2022-10-18T07:06:28.669Z,37.50
2022-10-18T07:09:30.798Z,25.75
2022-10-18T07:12:33.667Z,26.75
2022-10-18T07:15:38.613Z,32.00
2022-10-18T07:18:48.521Z,30.00
2022-10-18T07:21:50.503Z,26.25
2022-10-18T07:24:52.834Z,26.50
2022-10-18T07:27:54.825Z,34.50
2022-10-18T07:30:57.153Z,26.75
2022-10-18T07:33:59.208Z,26.25
2022-10-18T07:37:02.203Z,34.00
2022-10-18T07:40:04.642Z,31.50
2022-10-18T07:43:10.258Z,30.50
2022-10-18T07:46:15.408Z,34.50
2022-10-18T07:49:18.147Z,34.75
2022-10-18T07:52:20.135Z,32.00
2022-10-18T07:55:22.430Z,36.25
2022-10-18T07:58:24.624Z,37.50
2022-10-18T08:01:27.002Z,31.25
2022-10-18T08:04:29.039Z,40.25
2022-10-18T08:07:33.354Z,39.75
2022-10-18T08:10:36.256Z,33.00
2022-10-18T08:13:38.619Z,37.25
2022-10-18T08:16:40.612Z,37.00
2022-10-18T08:19:52.817Z,39.50
2022-10-18T08:23:05.205Z,37.00
2022-10-18T08:26:10.599Z,34.75
2022-10-18T08:29:31.645Z,37.00
2022-10-18T08:32:34.553Z,38.00
2022-10-18T08:35:37.013Z,37.50
2022-10-18T08:38:40.795Z,39.50
2022-10-18T08:42:10.731Z,42.50
2022-10-18T08:45:30.228Z,39.75
2022-10-18T08:48:44.796Z,46.25
2022-10-18T08:51:49.502Z,40.00
2022-10-18T08:55:05.332Z,45.75
2022-10-18T08:58:27.430Z,45.75
2022-10-18T09:05:01.203Z,42.75
2022-10-18T09:08:40.481Z,49.25
2022-10-18T09:11:51.866Z,41.50
2022-10-18T09:15:25.207Z,47.50
2022-10-18T09:18:30.578Z,48.00
2022-10-18T09:21:52.883Z,42.25
2022-10-18T09:25:03.483Z,46.25
2022-10-18T09:28:08.501Z,50.00
2022-10-18T09:31:41.690Z,49.25
2022-10-18T09:34:53.645Z,38.25
2022-10-18T09:38:05.035Z,50.50
2022-10-18T09:41:58.340Z,42.50
2022-10-18T09:45:23.107Z,45.25
2022-10-18T09:48:31.552Z,46.50
2022-10-18T09:51:39.258Z,40.25
2022-10-18T09:54:49.558Z,43.75
2022-10-18T09:57:55.912Z,42.50
2022-10-18T10:00:58.230Z,47.25
2022-10-18T10:04:00.492Z,46.50
2022-10-18T10:07:02.780Z,41.75
2022-10-18T10:10:08.604Z,36.25
2022-10-18T10:13:29.280Z,37.00
2022-10-18T10:16:31.535Z,39.25
2022-10-18T10:19:37.496Z,45.50
2022-10-18T10:22:40.858Z,43.25
2022-10-18T10:25:43.024Z,41.50
2022-10-18T10:28:48.694Z,41.50
2022-10-18T10:32:04.528Z,44.00
2022-10-18T10:35:42.107Z,35.75
2022-10-18T10:39:11.227Z,44.50
2022-10-18T10:42:13.655Z,43.25
2022-10-18T10:45:15.771Z,37.75
2022-10-18T10:48:19.671Z,47.00
2022-10-18T10:51:34.091Z,46.75
2022-10-18T10:54:39.118Z,38.00
2022-10-18T10:57:45.129Z,41.50
2022-10-18T11:00:47.325Z,44.50
2022-10-18T11:03:52.258Z,44.25
2022-10-18T11:07:11.388Z,42.50
2022-10-18T11:10:23.176Z,46.25
2022-10-18T11:13:45.601Z,42.75
2022-10-18T11:16:52.288Z,41.50
2022-10-18T11:20:10.676Z,43.50
2022-10-18T11:23:15.180Z,42.00
2022-10-18T11:26:43.690Z,41.25
2022-10-18T11:29:49.880Z,40.00
2022-10-18T11:33:16.702Z,44.75
2022-10-18T11:36:25.028Z,40.75
2022-10-18T11:39:34.121Z,48.25
2022-10-18T11:42:49.711Z,43.00
2022-10-18T11:46:02.044Z,50.75
2022-10-18T11:49:19.459Z,43.50
2022-10-18T11:52:36.136Z,46.25
2022-10-18T11:55:59.226Z,48.00
2022-10-18T11:59:20.307Z,47.50
2022-10-18T12:03:04.383Z,50.75
2022-10-18T12:06:14.038Z,48.00
2022-10-18T12:09:43.981Z,51.00
2022-10-18T12:13:02.172Z,46.00
2022-10-18T12:16:05.682Z,49.25
2022-10-18T12:19:22.131Z,44.00
2022-10-18T12:22:35.875Z,51.50
2022-10-18T12:25:41.563Z,50.75
2022-10-18T12:29:03.091Z,52.25
2022-10-18T12:32:11.199Z,49.00
2022-10-18T12:35:16.656Z,46.50
2022-10-18T12:38:27.543Z,48.25
2022-10-18T12:41:34.138Z,49.25
2022-10-18T12:44:36.550Z,50.00
2022-10-18T12:47:38.648Z,53.25
2022-10-18T12:50:42.804Z,48.00
2022-10-18T12:53:51.547Z,50.00
2022-10-18T12:56:53.764Z,52.25
2022-10-18T12:59:55.832Z,55.75
2022-10-18T13:03:27.538Z,52.75
2022-10-18T13:06:58.709Z,48.50
2022-10-18T13:10:10.321Z,47.75
2022-10-18T13:13:38.767Z,50.50
2022-10-18T13:16:50.803Z,50.00
2022-10-18T13:20:20.628Z,47.00
2022-10-18T13:24:03.273Z,49.00
2022-10-18T13:27:35.970Z,49.75
2022-10-18T13:31:09.469Z,49.00
2022-10-18T13:34:35.237Z,52.50
2022-10-18T13:37:37.573Z,50.50
2022-10-18T13:40:39.959Z,49.75
2022-10-18T13:44:10.656Z,52.00
2022-10-18T13:47:14.839Z,53.00
2022-10-18T13:50:56.054Z,50.50
2022-10-18T13:54:13.368Z,46.50
2022-10-18T13:57:52.966Z,53.00
2022-10-18T14:00:59.295Z,57.25
2022-10-18T14:04:20.112Z,52.50
2022-10-18T14:07:22.416Z,50.25
2022-10-18T14:11:01.309Z,48.25
2022-10-18T14:14:09.445Z,52.50
2022-10-18T14:17:17.615Z,45.75
2022-10-18T14:20:27.369Z,50.75
2022-10-18T14:23:38.014Z,49.50
2022-10-18T14:29:42.399Z,47.00
2022-10-18T14:32:54.536Z,42.75
2022-10-18T14:36:03.364Z,48.25
2022-10-18T14:39:07.173Z,45.75
2022-10-18T14:42:21.176Z,48.25
2022-10-18T14:45:24.295Z,45.50
2022-10-18T14:48:26.511Z,44.50
2022-10-18T14:51:31.894Z,46.75
2022-10-18T14:54:38.031Z,47.75
2022-10-18T14:57:40.203Z,44.75
2022-10-18T15:00:45.087Z,39.75
2022-10-18T15:03:50.168Z,43.00
2022-10-18T15:06:52.553Z,47.25
2022-10-18T15:09:56.963Z,43.50
2022-10-18T15:13:09.727Z,43.00
2022-10-18T15:16:17.839Z,40.50
2022-10-18T15:19:36.148Z,46.75
2022-10-18T15:22:38.606Z,42.00
2022-10-18T15:25:43.858Z,42.75
2022-10-18T15:28:53.625Z,39.75
2022-10-18T15:32:06.021Z,38.75
2022-10-18T15:35:14.470Z,35.50
2022-10-18T15:38:26.467Z,32.75
2022-10-18T15:41:38.943Z,34.25
2022-10-18T15:44:51.212Z,43.00
2022-10-18T15:48:02.349Z,37.00
2022-10-18T15:51:10.237Z,34.50
2022-10-18T15:54:18.586Z,41.75
2022-10-18T15:57:21.168Z,38.00
2022-10-18T16:00:23.334Z,37.75
2022-10-18T16:03:26.189Z,36.50
2022-10-18T16:06:28.667Z,44.00
2022-10-18T16:09:31.413Z,40.75
2022-10-18T16:12:34.095Z,44.50
2022-10-18T16:15:36.964Z,47.75
2022-10-18T16:18:39.934Z,46.25
2022-10-18T16:21:42.636Z,42.75
2022-10-18T16:24:44.663Z,50.75
2022-10-18T16:27:47.120Z,50.00
2022-10-18T16:30:57.150Z,47.75
2022-10-18T16:34:00.382Z,47.00
2022-10-18T16:37:02.848Z,49.00
2022-10-18T16:40:25.353Z,49.25
2022-10-18T16:43:27.871Z,42.00
2022-10-18T16:46:34.027Z,55.00
2022-10-18T16:49:36.434Z,46.00
2022-10-18T16:52:39.234Z,49.00
2022-10-18T16:55:44.012Z,40.00
2022-10-18T16:58:48.822Z,34.00
2022-10-18T17:01:51.269Z,25.50
2022-10-18T17:04:55.471Z,21.25
2022-10-18T17:07:57.508Z,25.00
2022-10-18T17:11:00.125Z,20.00
2022-10-18T17:14:02.149Z,18.00
2022-10-18T17:17:04.574Z,19.00
2022-10-18T17:20:08.783Z,18.00
2022-10-18T17:23:11.705Z,14.50
2022-10-18T17:26:28.539Z,17.00
2022-10-18T17:29:32.923Z,16.25
2022-10-18T17:32:35.645Z,19.00
2022-10-18T17:35:38.609Z,15.25
2022-10-18T17:38:41.302Z,12.25
2022-10-18T17:41:44.038Z,11.50
2022-10-18T17:44:46.406Z,13.00
2022-10-18T17:47:49.033Z,9.50
2022-10-18T17:50:51.310Z,9.00
2022-10-18T17:53:55.959Z,9.00
2022-10-18T17:57:00.165Z,11.50
2022-10-18T18:00:08.424Z,8.75
2022-10-18T18:03:17.888Z,10.25
2022-10-18T18:06:24.483Z,12.50
2022-10-18T18:09:27.684Z,12.75
2022-10-18T18:12:35.328Z,8.00
2022-10-18T18:15:40.356Z,10.25
2022-10-18T18:18:43.546Z,7.75
2022-10-18T18:21:45.769Z,13.75
2022-10-18T18:24:48.149Z,19.50
2022-10-18T18:27:50.355Z,15.25
2022-10-18T18:30:53.375Z,10.50
2022-10-18T18:33:57.702Z,9.00
2022-10-18T18:37:01.124Z,14.25
2022-10-18T18:40:05.013Z,11.75
2022-10-18T18:43:22.861Z,17.50
2022-10-18T18:46:28.097Z,15.50
2022-10-18T18:49:32.383Z,16.50
2022-10-18T18:52:35.754Z,22.25
2022-10-18T18:55:45.300Z,16.25
2022-10-18T18:58:50.456Z,22.25
2022-10-18T19:01:53.604Z,19.00
2022-10-18T19:04:58.157Z,18.50
2022-10-18T19:08:01.710Z,22.50
2022-10-18T19:11:08.961Z,16.50
2022-10-18T19:14:12.148Z,21.25
2022-10-18T19:17:14.887Z,21.25
2022-10-18T19:20:20.355Z,24.75
2022-10-18T19:23:23.099Z,21.50
2022-10-18T19:26:39.119Z,25.25
2022-10-18T19:29:43.365Z,23.50
2022-10-18T19:32:52.951Z,20.00
2022-10-18T19:35:56.116Z,23.00
2022-10-18T19:38:59.085Z,19.50
2022-10-18T19:42:04.610Z,23.50
2022-10-18T19:45:09.088Z,24.25
2022-10-18T19:48:13.340Z,22.50
2022-10-18T19:51:20.245Z,25.00
2022-10-18T19:54:26.892Z,22.00
2022-10-18T19:57:29.686Z,17.25
2022-10-18T20:00:31.936Z,22.50
2022-10-18T20:03:35.789Z,19.50
2022-10-18T20:06:38.969Z,22.25
2022-10-18T20:09:41.612Z,22.00
2022-10-18T20:12:43.618Z,23.75
2022-10-18T20:15:50.952Z,22.50
2022-10-18T20:19:01.322Z,17.00
2022-10-18T20:22:03.654Z,17.75
2022-10-18T20:25:05.887Z,17.00
2022-10-18T20:28:08.242Z,22.00
2022-10-18T20:31:12.707Z,18.00
2022-10-18T20:34:15.063Z,22.50
2022-10-18T20:37:17.096Z,25.25
2022-10-18T20:40:19.345Z,22.25
2022-10-18T20:43:21.486Z,31.00
2022-10-18T20:46:23.765Z,29.75
2022-10-18T20:49:25.956Z,33.75
2022-10-18T20:52:28.406Z,31.50
2022-10-18T20:55:30.500Z,30.00
2022-10-18T20:58:33.806Z,22.00
2022-10-18T21:01:37.056Z,34.25
2022-10-18T21:04:42.182Z,26.75
2022-10-18T21:07:44.552Z,31.00
2022-10-18T21:10:46.919Z,32.00
2022-10-18T21:13:53.305Z,33.00
2022-10-18T21:16:55.479Z,29.00
2022-10-18T21:19:57.449Z,34.00
2022-10-18T21:22:59.658Z,34.25
2022-10-18T21:26:01.836Z,35.00
2022-10-18T21:29:06.547Z,42.50
2022-10-18T21:32:08.591Z,33.00
2022-10-18T21:35:11.413Z,35.50
2022-10-18T21:38:13.397Z,42.25
2022-10-18T21:41:16.828Z,36.25
2022-10-18T21:44:18.981Z,35.50
2022-10-18T21:47:21.224Z,39.75
2022-10-18T21:50:23.186Z,40.00
2022-10-18T21:53:25.323Z,34.50
2022-10-18T21:56:29.896Z,44.00
2022-10-18T21:59:32.198Z,36.50
2022-10-18T22:02:35.161Z,38.00
2022-10-18T22:05:37.696Z,42.50
2022-10-18T22:08:44.753Z,38.50
2022-10-18T22:11:50.301Z,37.75
2022-10-18T22:14:52.322Z,38.00
2022-10-18T22:17:54.526Z,44.50
2022-10-18T22:20:58.362Z,43.00
2022-10-18T22:24:04.618Z,40.25
2022-10-18T22:27:06.682Z,42.00
2022-10-18T22:30:09.495Z,40.00
2022-10-18T22:33:11.587Z,38.75
2022-10-18T22:36:14.094Z,37.25
2022-10-18T22:39:16.869Z,41.00
2022-10-18T22:42:19.035Z,52.50
2022-10-18T22:45:21.022Z,40.25
2022-10-18T22:48:23.187Z,41.00
2022-10-18T22:51:25.581Z,39.75
2022-10-18T22:54:27.828Z,41.00
2022-10-18T22:57:30.189Z,40.00
2022-10-18T23:00:32.447Z,43.00
2022-10-18T23:03:34.946Z,36.25
2022-10-18T23:06:37.191Z,37.25
2022-10-18T23:12:42.418Z,38.25
2022-10-18T23:15:44.487Z,43.00
2022-10-18T23:18:51.677Z,39.75
2022-10-18T23:21:53.635Z,35.75
2022-10-18T23:24:55.866Z,38.25
2022-10-18T23:27:58.036Z,35.00
2022-10-18T23:31:08.686Z,41.00
2022-10-18T23:34:10.798Z,44.75
2022-10-18T23:37:13.073Z,38.25
2022-10-18T23:40:15.231Z,32.25
2022-10-18T23:43:17.392Z,38.75
2022-10-18T23:46:20.312Z,30.00
2022-10-18T23:49:22.495Z,24.25
2022-10-18T23:52:24.863Z,30.50
2022-10-18T23:55:27.042Z,29.50
2022-10-18T23:58:30.838Z,24.75
